Time;durP1;ratioP1;P1;durP2;ratioP2;P2;SDS_P1;SDS_P2;PMS_P1;PMS_P2;Temp;Humidity;BMP_temperature;BMP_pressure;BME280_temperature;BME280_humidity;BME280_pressure;Samples;Min_cycle;Max_cycle;Signal;HPM_P1;HPM_P2
2023/02/07 00:00:13;;;;;;;1.48;1.37;;;-2.70;99.90;;;;;;4421333;32;20165;-61
2023/02/07 00:02:43;;;;;;;0.80;0.80;;;-2.80;99.90;;;;;;4409322;32;20120;-60
2023/02/07 00:05:10;;;;;;;0.98;0.98;;;-2.80;99.90;;;;;;4408091;32;20414;-60
2023/02/07 00:07:35;;;;;;;1.08;1.08;;;-2.70;99.90;;;;;;4409232;32;20061;-60
2023/02/07 00:10:01;;;;;;;0.60;0.60;;;-2.60;99.90;;;;;;4407056;32;20109;-61
2023/02/07 00:12:26;;;;;;;0.88;0.88;;;-2.60;99.90;;;;;;4423072;32;20057;-59
2023/02/07 00:14:52;;;;;;;0.70;0.70;;;-2.60;99.90;;;;;;4421164;32;20698;-61
2023/02/07 00:17:17;;;;;;;2.08;1.87;;;-2.60;99.90;;;;;;4422197;32;20086;-60
2023/02/07 00:19:42;;;;;;;1.77;1.65;;;-2.50;99.90;;;;;;4420864;32;20151;-60
2023/02/07 00:22:08;;;;;;;2.37;2.15;;;-2.60;99.90;;;;;;4420272;32;20057;-61
2023/02/07 00:24:33;;;;;;;1.00;1.00;;;-2.60;99.90;;;;;;4421512;32;20093;-60
2023/02/07 00:26:59;;;;;;;1.00;1.00;;;-2.60;99.90;;;;;;4422278;32;20419;-61
2023/02/07 00:29:25;;;;;;;0.95;0.95;;;-2.60;99.90;;;;;;4407842;32;20061;-60
2023/02/07 00:31:52;;;;;;;1.02;1.02;;;-2.50;99.90;;;;;;4418718;32;20116;-61
2023/02/07 00:34:17;;;;;;;0.80;0.80;;;-2.60;99.90;;;;;;4420835;32;20085;-61
2023/02/07 00:36:43;;;;;;;0.85;0.85;;;-2.60;99.90;;;;;;4420222;32;20139;-61
2023/02/07 00:39:12;;;;;;;0.57;0.57;;;-2.70;99.90;;;;;;4407187;32;20097;-60
2023/02/07 00:41:38;;;;;;;1.15;1.12;;;-2.60;99.90;;;;;;4405770;32;20058;-60
2023/02/07 00:44:04;;;;;;;7.00;3.30;;;-2.60;99.90;;;;;;4421908;32;20106;-60
2023/02/07 00:46:30;;;;;;;0.82;0.82;;;-2.70;99.90;;;;;;4419456;32;20074;-60
2023/02/07 00:48:56;;;;;;;2.45;1.70;;;-2.70;99.90;;;;;;4405283;32;20081;-61
2023/02/07 00:51:24;;;;;;;0.65;0.65;;;-2.80;99.90;;;;;;4405266;32;20077;-62
2023/02/07 00:53:52;;;;;;;1.02;1.02;;;-2.90;99.90;;;;;;4422497;32;20131;-59
2023/02/07 00:56:18;;;;;;;1.40;1.30;;;-3.00;99.90;;;;;;4406577;32;20087;-59
2023/02/07 00:58:43;;;;;;;1.08;1.08;;;-3.00;99.90;;;;;;4406128;32;20070;-61
2023/02/07 01:01:09;;;;;;;0.60;0.60;;;-2.90;99.90;;;;;;4422456;32;20069;-60
2023/02/07 01:03:34;;;;;;;0.70;0.70;;;-2.90;99.90;;;;;;4423140;32;20065;-61
2023/02/07 01:06:00;;;;;;;1.00;1.00;;;-2.90;99.90;;;;;;4424279;32;20082;-61
2023/02/07 01:08:25;;;;;;;1.70;1.58;;;-2.90;99.90;;;;;;4422258;32;20097;-60
2023/02/07 01:10:51;;;;;;;1.85;1.75;;;-2.80;99.90;;;;;;4424453;32;20065;-61
2023/02/07 01:13:16;;;;;;;1.00;1.00;;;-2.70;99.90;;;;;;4423599;32;20062;-61
2023/02/07 01:15:44;;;;;;;6.03;1.83;;;-2.70;99.90;;;;;;4409864;32;20058;-60
2023/02/07 01:18:10;;;;;;;0.55;0.55;;;-2.70;99.90;;;;;;4409904;32;20073;-62
2023/02/07 01:20:36;;;;;;;7.87;2.83;;;-2.80;99.90;;;;;;4424816;32;20457;-60
2023/02/07 01:23:03;;;;;;;8.88;2.78;;;-3.00;99.90;;;;;;4409072;32;20633;-62
2023/02/07 01:25:29;;;;;;;0.50;0.50;;;-3.00;99.90;;;;;;4423848;32;20112;-61
2023/02/07 01:27:55;;;;;;;0.90;0.90;;;-3.10;99.90;;;;;;4409492;32;21320;-61
2023/02/07 01:30:20;;;;;;;2.08;1.30;;;-3.10;99.90;;;;;;4409910;32;20148;-61
2023/02/07 01:32:47;;;;;;;0.50;0.50;;;-3.10;99.90;;;;;;4424392;32;20105;-61
2023/02/07 01:35:12;;;;;;;0.90;0.90;;;-3.10;99.90;;;;;;4424247;32;20074;-62
2023/02/07 01:37:38;;;;;;;1.50;1.40;;;-3.20;99.90;;;;;;4421980;32;20502;-60
2023/02/07 01:40:04;;;;;;;3.47;2.17;;;-3.30;99.90;;;;;;4423932;32;20069;-60
2023/02/07 01:42:29;;;;;;;0.93;0.93;;;-3.20;99.90;;;;;;4422586;32;20493;-59
2023/02/07 01:45:02;;;;;;;0.50;0.50;;;-3.30;99.90;;;;;;4424108;32;20128;-61
2023/02/07 01:47:29;;;;;;;2.50;1.85;;;-3.30;99.90;;;;;;4410206;32;20095;-59
2023/02/07 01:49:57;;;;;;;0.70;0.70;;;-3.20;99.90;;;;;;4409808;32;21644;-61
2023/02/07 01:52:29;;;;;;;2.20;1.65;;;-3.20;99.90;;;;;;4423902;32;20077;-60
2023/02/07 01:55:01;;;;;;;1.45;1.37;;;-3.20;99.90;;;;;;4423615;32;20076;-62
2023/02/07 01:57:26;;;;;;;0.88;0.88;;;-3.20;99.90;;;;;;4422578;32;20463;-61
2023/02/07 01:59:53;;;;;;;1.37;0.98;;;-3.30;99.90;;;;;;4422535;32;20069;-61
2023/02/07 02:02:22;;;;;;;1.42;1.33;;;-3.40;99.90;;;;;;4407927;32;20081;-61
2023/02/07 02:04:52;;;;;;;0.80;0.80;;;-3.40;99.90;;;;;;4410453;32;20583;-61
2023/02/07 02:07:18;;;;;;;0.80;0.80;;;-3.50;99.90;;;;;;4397018;32;20065;-61
2023/02/07 02:09:43;;;;;;;2.55;1.83;;;-3.50;99.90;;;;;;4407583;32;20078;-60
2023/02/07 02:12:31;;;;;;;1.30;1.20;;;-3.40;99.90;;;;;;4408650;32;20273;-60
2023/02/07 02:15:21;;;;;;;1.83;1.70;;;-3.40;99.90;;;;;;4412537;32;20078;-61
2023/02/07 02:18:18;;;;;;;1.63;1.53;;;-3.40;99.90;;;;;;4410218;32;20074;-61
2023/02/07 02:21:13;;;;;;;1.25;1.12;;;-3.30;99.90;;;;;;4411581;32;20175;-60
2023/02/07 02:23:54;;;;;;;0.95;0.95;;;-3.30;99.90;;;;;;4411332;32;20093;-60
2023/02/07 02:26:53;;;;;;;1.12;1.10;;;-3.40;99.90;;;;;;4412398;32;20113;-61
2023/02/07 02:29:50;;;;;;;1.12;1.12;;;-3.50;99.90;;;;;;4424418;32;20105;-60
2023/02/07 02:32:45;;;;;;;0.40;0.40;;;-3.50;99.90;;;;;;4411747;32;20526;-62
2023/02/07 02:35:20;;;;;;;0.70;0.70;;;-3.50;99.90;;;;;;4412260;32;20068;-60
2023/02/07 02:37:53;;;;;;;0.73;0.73;;;-3.50;99.90;;;;;;4408008;32;22015;-61
2023/02/07 02:40:33;;;;;;;0.90;0.90;;;-3.50;99.90;;;;;;4406569;32;20070;-61
2023/02/07 02:43:30;;;;;;;1.17;1.17;;;-3.60;99.90;;;;;;4407952;32;20411;-60
2023/02/07 02:46:02;;;;;;;1.17;1.10;;;-3.60;99.90;;;;;;4406870;32;20500;-60
2023/02/07 02:48:29;;;;;;;5.22;2.83;;;-3.60;99.90;;;;;;4404530;32;20077;-59
2023/02/07 02:50:55;;;;;;;2.37;1.75;;;-3.60;99.90;;;;;;4420971;32;20069;-60
2023/02/07 02:53:21;;;;;;;0.82;0.82;;;-3.60;99.90;;;;;;4409285;32;20054;-61
2023/02/07 02:56:09;;;;;;;0.68;0.68;;;-3.60;99.90;;;;;;4423767;32;20105;-60
2023/02/07 02:58:50;;;;;;;1.77;1.60;;;-3.60;99.90;;;;;;4409276;32;20101;-61
2023/02/07 03:01:42;;;;;;;1.70;1.55;;;-3.60;99.90;;;;;;4408145;32;20060;-60
2023/02/07 03:04:23;;;;;;;7.87;2.17;;;-3.60;99.90;;;;;;4411854;32;20049;-60
2023/02/07 03:07:10;;;;;;;1.05;1.05;;;-3.70;99.90;;;;;;4423098;32;20078;-61
2023/02/07 03:09:48;;;;;;;1.40;1.10;;;-3.90;99.90;;;;;;4411015;32;20114;-61
2023/02/07 03:12:25;;;;;;;0.60;0.60;;;-3.90;99.90;;;;;;4408296;32;20085;-59
2023/02/07 03:15:05;;;;;;;2.03;1.92;;;-4.00;99.90;;;;;;4422878;32;20136;-62
2023/02/07 03:17:43;;;;;;;0.77;0.77;;;-4.00;99.90;;;;;;4407972;32;20454;-61
2023/02/07 03:20:21;;;;;;;1.48;1.37;;;-4.00;99.90;;;;;;4409793;32;20108;-60
2023/02/07 03:22:49;;;;;;;4.75;2.47;;;-4.10;99.90;;;;;;4399981;32;20577;-62
2023/02/07 03:25:17;;;;;;;0.70;0.70;;;-4.10;99.90;;;;;;4390720;32;20090;-61
2023/02/07 03:27:45;;;;;;;1.58;1.45;;;-3.90;99.90;;;;;;4390771;32;20148;-61
2023/02/07 03:30:17;;;;;;;0.77;0.77;;;-4.00;99.90;;;;;;4403873;32;20176;-62
2023/02/07 03:32:49;;;;;;;1.25;1.25;;;-4.00;99.90;;;;;;4407467;32;20498;-60
2023/02/07 03:35:25;;;;;;;0.60;0.60;;;-4.10;99.90;;;;;;4392940;32;20149;-60
2023/02/07 03:37:54;;;;;;;1.75;1.65;;;-4.00;99.90;;;;;;4406573;32;20181;-60
2023/02/07 03:40:21;;;;;;;1.30;1.23;;;-3.90;99.90;;;;;;4393214;32;20093;-61
2023/02/07 03:42:56;;;;;;;1.85;1.75;;;-3.70;99.90;;;;;;4407217;32;20116;-61
2023/02/07 03:45:22;;;;;;;1.92;1.55;;;-3.70;99.90;;;;;;4406435;32;20470;-62
2023/02/07 03:47:48;;;;;;;1.05;1.05;;;-3.80;99.90;;;;;;4392213;32;20065;-61
2023/02/07 03:50:14;;;;;;;0.50;0.50;;;-4.00;99.90;;;;;;4392842;32;20098;-59
2023/02/07 03:52:40;;;;;;;2.35;2.15;;;-4.10;99.90;;;;;;4407423;32;20089;-60
2023/02/07 03:55:06;;;;;;;0.50;0.50;;;-4.10;99.90;;;;;;4408307;32;20061;-61
2023/02/07 03:57:31;;;;;;;1.15;1.15;;;-4.10;99.90;;;;;;4393157;32;20145;-60
2023/02/07 03:59:57;;;;;;;3.22;2.12;;;-4.10;99.90;;;;;;4407140;32;20093;-60
2023/02/07 04:02:22;;;;;;;12.73;2.62;;;-4.10;99.90;;;;;;4407722;32;20094;-61
2023/02/07 04:04:48;;;;;;;0.60;0.60;;;-4.10;99.90;;;;;;4407992;32;20066;-60
2023/02/07 04:07:13;;;;;;;0.70;0.70;;;-4.10;99.90;;;;;;4393487;32;20074;-61
2023/02/07 04:09:39;;;;;;;2.00;1.83;;;-4.10;99.90;;;;;;4406902;32;20540;-61
2023/02/07 04:12:05;;;;;;;0.93;0.93;;;-4.00;99.90;;;;;;4408700;32;20113;-61
2023/02/07 04:14:30;;;;;;;0.55;0.55;;;-4.00;99.90;;;;;;4394667;32;20180;-61
2023/02/07 04:16:56;;;;;;;3.60;1.95;;;-4.00;99.90;;;;;;4407345;32;20073;-61
2023/02/07 04:19:21;;;;;;;3.12;2.50;;;-4.00;99.90;;;;;;4407888;32;20077;-60
2023/02/07 04:21:47;;;;;;;0.90;0.90;;;-4.00;99.90;;;;;;4406926;32;20119;-61
2023/02/07 04:24:12;;;;;;;1.17;1.08;;;-4.00;99.90;;;;;;4404170;32;20085;-60
2023/02/07 04:26:38;;;;;;;1.40;1.30;;;-4.00;99.90;;;;;;4408095;32;20106;-62
2023/02/07 04:29:03;;;;;;;0.50;0.50;;;-4.00;99.90;;;;;;4420461;32;20094;-62
2023/02/07 04:31:29;;;;;;;1.85;1.62;;;-4.00;99.90;;;;;;4423938;32;20053;-62
2023/02/07 04:33:54;;;;;;;0.82;0.82;;;-4.00;99.90;;;;;;4422122;32;20085;-61
2023/02/07 04:36:21;;;;;;;1.73;1.60;;;-4.10;99.90;;;;;;4422606;32;20097;-61
2023/02/07 04:38:47;;;;;;;2.30;2.10;;;-4.10;99.90;;;;;;4422274;32;20481;-61
2023/02/07 04:41:12;;;;;;;2.75;2.05;;;-4.10;99.90;;;;;;4424634;32;20166;-62
2023/02/07 04:43:38;;;;;;;0.98;0.98;;;-4.00;99.90;;;;;;4426285;32;20085;-60
2023/02/07 04:46:05;;;;;;;1.42;1.23;;;-4.10;99.90;;;;;;4425381;32;20058;-61
2023/02/07 04:48:31;;;;;;;2.40;1.95;;;-4.10;99.90;;;;;;4411578;32;20157;-61
2023/02/07 04:50:56;;;;;;;1.98;1.87;;;-4.10;99.90;;;;;;4424707;32;20057;-61
2023/02/07 04:53:22;;;;;;;0.52;0.52;;;-4.10;99.90;;;;;;4424693;32;20088;-61
2023/02/07 04:55:48;;;;;;;1.40;1.37;;;-4.00;99.90;;;;;;4424454;32;20520;-60
2023/02/07 04:58:14;;;;;;;0.70;0.70;;;-3.90;99.90;;;;;;4424825;32;20504;-59
2023/02/07 05:00:39;;;;;;;2.12;1.87;;;-4.00;99.90;;;;;;4424055;32;20116;-59
2023/02/07 05:03:05;;;;;;;1.17;1.10;;;-3.90;99.90;;;;;;4424007;32;20108;-61
2023/02/07 05:05:30;;;;;;;0.95;0.95;;;-3.80;99.90;;;;;;4412025;32;20093;-61
2023/02/07 05:07:56;;;;;;;0.70;0.70;;;-3.80;99.90;;;;;;4424395;32;20074;-61
2023/02/07 05:10:21;;;;;;;1.20;1.17;;;-4.00;99.90;;;;;;4424263;32;20528;-61
2023/02/07 05:12:47;;;;;;;1.00;0.98;;;-4.30;99.90;;;;;;4411123;32;20537;-59
2023/02/07 05:15:12;;;;;;;0.85;0.85;;;-4.40;99.90;;;;;;4425582;32;20081;-61
2023/02/07 05:17:38;;;;;;;4.57;2.25;;;-4.40;99.90;;;;;;4423845;32;20592;-60
2023/02/07 05:20:05;;;;;;;1.65;0.95;;;-4.30;99.90;;;;;;4424238;32;20077;-61
2023/02/07 05:22:30;;;;;;;1.35;1.25;;;-4.40;99.90;;;;;;4402079;32;20065;-60
2023/02/07 05:24:56;;;;;;;2.90;1.25;;;-4.50;99.90;;;;;;4421180;32;20522;-62
2023/02/07 05:27:21;;;;;;;2.08;1.87;;;-4.50;99.90;;;;;;4422340;32;20061;-60
2023/02/07 05:29:47;;;;;;;3.30;2.65;;;-4.30;99.90;;;;;;4423196;32;20105;-60
2023/02/07 05:33:13;;;;;;;13.20;3.85;;;-4.40;99.90;;;;;;4425289;32;20070;-60
2023/02/07 05:35:00;;;;;;;0.62;0.62;;;-4.50;99.90;;;;;;4401634;32;20081;-61
2023/02/07 05:37:26;;;;;;;3.90;3.00;;;-4.50;99.90;;;;;;4422505;32;20499;-60
2023/02/07 05:39:51;;;;;;;1.50;1.40;;;-4.50;99.90;;;;;;4409410;32;20131;-61
2023/02/07 05:42:17;;;;;;;1.20;1.20;;;-4.50;99.90;;;;;;4422068;32;20088;-60
2023/02/07 05:44:43;;;;;;;3.22;1.77;;;-4.50;99.90;;;;;;4408639;32;20501;-62
2023/02/07 05:47:10;;;;;;;2.45;1.85;;;-4.50;99.90;;;;;;4409624;32;20085;-62
2023/02/07 05:49:38;;;;;;;1.00;1.00;;;-4.50;99.90;;;;;;4423731;32;20143;-61
2023/02/07 05:52:04;;;;;;;1.67;1.58;;;-4.40;99.90;;;;;;4409491;32;20548;-60
2023/02/07 05:54:30;;;;;;;0.88;0.88;;;-4.40;99.90;;;;;;4410322;32;20061;-60
2023/02/07 05:56:55;;;;;;;1.37;1.33;;;-4.40;99.90;;;;;;4423232;32;20429;-61
2023/02/07 05:59:20;;;;;;;1.05;1.02;;;-4.40;99.90;;;;;;4421917;32;20129;-60
2023/02/07 06:01:46;;;;;;;0.75;0.75;;;-4.40;99.90;;;;;;4416494;32;20057;-60
2023/02/07 06:04:11;;;;;;;12.32;2.25;;;-4.40;99.90;;;;;;4415884;32;20096;-60
2023/02/07 06:06:37;;;;;;;1.25;1.25;;;-4.50;99.90;;;;;;4421001;32;20077;-59
2023/02/07 06:09:03;;;;;;;14.38;5.07;;;-4.60;99.90;;;;;;4422863;32;20678;-61
2023/02/07 06:11:29;;;;;;;2.03;1.90;;;-4.70;99.90;;;;;;4422797;32;20057;-61
2023/02/07 06:13:54;;;;;;;1.00;0.95;;;-5.00;99.90;;;;;;4423923;32;20553;-60
2023/02/07 06:16:20;;;;;;;0.88;0.88;;;-4.90;99.90;;;;;;4419559;32;20374;-60
2023/02/07 06:18:45;;;;;;;2.65;2.45;;;-4.70;99.90;;;;;;4405840;32;20097;-59
2023/02/07 06:21:11;;;;;;;2.75;2.12;;;-4.70;99.90;;;;;;4422285;32;20073;-62
2023/02/07 06:23:36;;;;;;;0.93;0.93;;;-4.80;99.90;;;;;;4419021;32;20071;-61
2023/02/07 06:26:02;;;;;;;0.82;0.82;;;-4.80;99.90;;;;;;4400647;32;20074;-62
2023/02/07 06:28:27;;;;;;;1.27;1.10;;;-4.90;99.90;;;;;;4393016;32;21384;-59
2023/02/07 06:30:53;;;;;;;1.40;1.33;;;-5.20;99.90;;;;;;4404084;32;20102;-57
2023/02/07 06:33:19;;;;;;;1.73;1.62;;;-5.20;99.90;;;;;;4388296;32;20333;-61
2023/02/07 06:35:46;;;;;;;1.75;1.65;;;-5.00;99.90;;;;;;4418566;32;20096;-62
2023/02/07 06:38:19;;;;;;;1.25;1.25;;;-4.90;99.90;;;;;;4399389;32;20579;-60
2023/02/07 06:40:45;;;;;;;4.05;2.50;;;-4.90;99.90;;;;;;4415550;32;20062;-61
2023/02/07 06:43:11;;;;;;;1.27;1.23;;;-5.00;99.90;;;;;;4416872;32;20070;-61
2023/02/07 06:45:36;;;;;;;0.55;0.55;;;-5.10;99.90;;;;;;4399322;32;20498;-60
2023/02/07 06:48:02;;;;;;;0.65;0.65;;;-5.00;99.90;;;;;;4413638;32;20065;-61
2023/02/07 06:50:28;;;;;;;3.40;2.25;;;-5.10;99.90;;;;;;4406307;32;20620;-62
2023/02/07 06:52:54;;;;;;;0.98;0.98;;;-4.90;99.90;;;;;;4395342;32;20562;-59
2023/02/07 06:55:20;;;;;;;0.93;0.93;;;-4.90;99.90;;;;;;4406842;32;20627;-61
2023/02/07 06:57:45;;;;;;;3.05;1.62;;;-4.80;99.90;;;;;;4394927;32;20093;-64
2023/02/07 07:00:11;;;;;;;1.30;1.20;;;-4.80;99.90;;;;;;4391224;32;20151;-58
2023/02/07 07:02:37;;;;;;;0.95;0.95;;;-4.80;99.90;;;;;;4382927;32;22271;-61
2023/02/07 07:05:02;;;;;;;1.12;1.12;;;-4.80;99.90;;;;;;4384580;32;20156;-60
2023/02/07 07:07:28;;;;;;;1.75;1.65;;;-4.90;99.90;;;;;;4363274;32;20797;-60
2023/02/07 07:09:54;;;;;;;1.45;1.00;;;-4.90;99.90;;;;;;4366375;32;20544;-61
2023/02/07 07:12:19;;;;;;;1.95;1.55;;;-5.00;99.90;;;;;;4392211;32;20101;-60
2023/02/07 07:14:45;;;;;;;1.42;1.33;;;-4.90;99.90;;;;;;4383288;32;20085;-59
2023/02/07 07:17:10;;;;;;;2.60;2.37;;;-4.90;99.90;;;;;;4391694;32;20888;-60
2023/02/07 07:19:35;;;;;;;4.03;1.95;;;-4.90;99.90;;;;;;4388949;32;20089;-60
2023/02/07 07:22:01;;;;;;;1.87;1.77;;;-5.00;99.90;;;;;;4385309;32;20790;-61
2023/02/07 07:24:26;;;;;;;1.58;1.48;;;-5.00;99.90;;;;;;4377074;32;20511;-60
2023/02/07 07:26:52;;;;;;;1.08;1.08;;;-4.90;99.90;;;;;;4378542;32;20240;-59
2023/02/07 07:29:18;;;;;;;2.08;1.92;;;-4.80;99.90;;;;;;4362072;32;20086;-61
2023/02/07 07:31:45;;;;;;;2.83;1.70;;;-4.80;99.90;;;;;;4372355;32;21124;-60
2023/02/07 07:34:10;;;;;;;1.10;1.10;;;-4.90;99.90;;;;;;4381300;32;20819;-60
2023/02/07 07:36:36;;;;;;;1.65;1.37;;;-4.80;99.90;;;;;;4365647;32;20077;-61
2023/02/07 07:39:02;;;;;;;1.33;1.23;;;-4.70;99.90;;;;;;4383045;32;20122;-60
2023/02/07 07:41:28;;;;;;;6.12;1.70;;;-4.60;99.90;;;;;;4351438;32;20089;-61
2023/02/07 07:43:54;;;;;;;0.60;0.60;;;-4.60;99.90;;;;;;4378388;32;20097;-59
2023/02/07 07:46:20;;;;;;;0.55;0.55;;;-4.60;99.90;;;;;;4379791;32;20616;-59
2023/02/07 07:48:45;;;;;;;1.05;1.05;;;-4.40;99.90;;;;;;4378726;32;20387;-61
2023/02/07 07:51:11;;;;;;;1.70;1.60;;;-4.20;99.90;;;;;;4381218;32;20538;-59
2023/02/07 07:53:36;;;;;;;3.08;2.22;;;-4.10;99.90;;;;;;4380638;32;21164;-59
2023/02/07 07:56:03;;;;;;;1.85;1.73;;;-4.10;99.90;;;;;;4380697;32;20690;-60
2023/02/07 07:58:28;;;;;;;0.93;0.93;;;-4.10;99.90;;;;;;4356675;32;20659;-59
2023/02/07 08:00:54;;;;;;;0.73;0.73;;;-4.00;99.90;;;;;;4368837;32;20421;-61
2023/02/07 08:03:19;;;;;;;0.90;0.90;;;-3.90;99.90;;;;;;4382424;32;20718;-60
2023/02/07 08:05:46;;;;;;;4.05;2.83;;;-3.80;99.90;;;;;;4384251;32;20202;-61
2023/02/07 08:08:11;;;;;;;2.30;2.10;;;-3.80;99.90;;;;;;4380584;32;20090;-61
2023/02/07 08:10:38;;;;;;;1.42;1.33;;;-3.60;99.90;;;;;;4363534;32;20821;-58
2023/02/07 08:13:03;;;;;;;0.50;0.50;;;-3.50;99.90;;;;;;4366680;32;20081;-59
2023/02/07 08:15:29;;;;;;;4.57;2.75;;;-3.30;99.90;;;;;;4389107;32;20105;-57
2023/02/07 08:17:55;;;;;;;1.35;1.25;;;-3.30;99.90;;;;;;4369330;32;20395;-62
2023/02/07 08:20:20;;;;;;;1.00;1.00;;;-3.20;99.90;;;;;;4365129;32;20366;-60
2023/02/07 08:22:46;;;;;;;1.08;1.08;;;-3.20;99.90;;;;;;4388712;32;20109;-60
2023/02/07 08:25:11;;;;;;;1.40;1.30;;;-3.10;99.90;;;;;;4386431;32;20100;-60
2023/02/07 08:27:37;;;;;;;5.60;3.47;;;-2.90;99.90;;;;;;4375591;32;20092;-60
2023/02/07 08:30:06;;;;;;;2.05;0.95;;;-3.00;99.90;;;;;;4366471;32;20244;-59
2023/02/07 08:32:32;;;;;;;1.75;1.65;;;-2.90;99.90;;;;;;4360436;32;21036;-59
2023/02/07 08:34:57;;;;;;;1.10;1.10;;;-2.80;99.90;;;;;;4384145;32;20093;-60
2023/02/07 08:37:23;;;;;;;0.77;0.77;;;-2.70;99.90;;;;;;4393616;32;20745;-60
2023/02/07 08:39:51;;;;;;;0.90;0.90;;;-2.60;99.90;;;;;;4397577;32;20144;-59
2023/02/07 08:42:19;;;;;;;2.30;1.95;;;-2.60;99.90;;;;;;4388724;32;20098;-60
2023/02/07 08:44:45;;;;;;;0.90;0.90;;;-2.60;99.90;;;;;;4388688;32;21562;-59
2023/02/07 08:47:11;;;;;;;2.25;2.05;;;-2.80;99.90;;;;;;4397547;32;20078;-60
2023/02/07 08:49:37;;;;;;;2.85;2.60;;;-2.60;99.90;;;;;;4390318;32;20797;-59
2023/02/07 08:52:02;;;;;;;0.88;0.88;;;-2.30;99.90;;;;;;4379298;32;21083;-59
2023/02/07 08:54:28;;;;;;;0.80;0.80;;;-2.30;99.90;;;;;;4372099;32;20788;-61
2023/02/07 08:56:54;;;;;;;1.35;1.30;;;-2.20;99.90;;;;;;4380588;32;20493;-62
2023/02/07 08:59:20;;;;;;;20.90;4.22;;;-2.10;99.90;;;;;;4389921;32;20105;-62
2023/02/07 09:01:45;;;;;;;1.70;1.60;;;-2.00;99.90;;;;;;4389745;32;20573;-60
2023/02/07 09:04:11;;;;;;;0.85;0.85;;;-1.90;99.90;;;;;;4375578;32;20109;-59
2023/02/07 09:06:37;;;;;;;1.58;1.12;;;-1.80;99.90;;;;;;4390334;32;20802;-60
2023/02/07 09:09:03;;;;;;;0.70;0.70;;;-1.60;99.90;;;;;;4392827;32;20088;-60
2023/02/07 09:11:29;;;;;;;2.17;1.73;;;-1.50;99.90;;;;;;4393118;32;20066;-61
2023/02/07 09:13:54;;;;;;;5.72;2.10;;;-1.50;99.90;;;;;;4387828;32;20862;-59
2023/02/07 09:16:22;;;;;;;0.82;0.82;;;-1.60;99.90;;;;;;4400862;32;20097;-60
2023/02/07 09:18:47;;;;;;;6.60;3.22;;;-1.40;99.90;;;;;;4398673;32;21247;-59
2023/02/07 09:21:14;;;;;;;0.88;0.88;;;-1.30;99.90;;;;;;4395810;32;20153;-61
2023/02/07 09:23:39;;;;;;;0.85;0.85;;;-1.10;99.90;;;;;;4387766;32;20089;-61
2023/02/07 09:26:06;;;;;;;0.98;0.90;;;-0.90;99.90;;;;;;4392031;32;20102;-62
2023/02/07 09:28:32;;;;;;;1.00;1.00;;;-0.80;99.90;;;;;;4373264;32;20085;-59
2023/02/07 09:30:58;;;;;;;2.17;1.83;;;-0.70;99.90;;;;;;4374591;32;20093;-59
2023/02/07 09:33:24;;;;;;;0.65;0.65;;;-0.60;99.90;;;;;;4388800;32;20806;-60
2023/02/07 09:35:50;;;;;;;0.80;0.80;;;-0.50;99.90;;;;;;4375222;32;20188;-59
2023/02/07 09:38:19;;;;;;;1.95;1.45;;;-0.50;99.90;;;;;;4377438;32;20097;-60
2023/02/07 09:40:47;;;;;;;7.20;3.55;;;-0.50;99.90;;;;;;4398585;32;20073;-60
2023/02/07 09:43:25;;;;;;;3.47;2.33;;;-0.50;99.90;;;;;;4400536;32;20084;-60
2023/02/07 09:45:55;;;;;;;0.93;0.93;;;-0.10;99.90;;;;;;4377275;32;20674;-61
2023/02/07 09:48:30;;;;;;;1.23;1.15;;;0.00;99.90;;;;;;4379940;32;20089;-62
2023/02/07 09:51:00;;;;;;;0.95;0.95;;;0.20;99.90;;;;;;4390020;32;20152;-62
2023/02/07 09:53:39;;;;;;;0.70;0.70;;;0.50;99.90;;;;;;4383336;32;20144;-63
2023/02/07 09:56:05;;;;;;;0.60;0.60;;;0.50;99.90;;;;;;4373782;32;20121;-62
2023/02/07 09:58:44;;;;;;;0.90;0.90;;;0.40;99.90;;;;;;4376367;32;21889;-63
2023/02/07 10:01:16;;;;;;;3.78;1.73;;;0.70;99.90;;;;;;4394846;32;20095;-63
2023/02/07 10:03:52;;;;;;;1.35;1.25;;;0.90;99.90;;;;;;4383959;32;20422;-63
2023/02/07 10:06:25;;;;;;;3.50;1.80;;;0.90;99.90;;;;;;4387814;32;20767;-62
2023/02/07 10:08:54;;;;;;;3.40;1.75;;;0.90;99.90;;;;;;4375148;32;20133;-61
2023/02/07 10:11:44;;;;;;;0.90;0.85;;;0.90;99.90;;;;;;4362389;32;20443;-62
2023/02/07 10:14:20;;;;;;;1.05;0.98;;;1.10;99.90;;;;;;4363278;32;20085;-63
2023/02/07 10:16:54;;;;;;;1.02;1.02;;;1.20;99.90;;;;;;4385145;32;20097;-62
2023/02/07 10:19:35;;;;;;;1.00;1.00;;;1.20;99.90;;;;;;4381995;32;20188;-62
2023/02/07 10:22:25;;;;;;;0.80;0.80;;;1.30;99.90;;;;;;4378544;32;20218;-61
2023/02/07 10:25:02;;;;;;;5.82;2.45;;;1.50;99.90;;;;;;4338153;32;20101;-63
2023/02/07 10:27:31;;;;;;;3.60;2.03;;;1.60;99.90;;;;;;4353024;32;21090;-62
2023/02/07 10:30:13;;;;;;;0.57;0.57;;;1.70;99.90;;;;;;4359809;32;20122;-62
2023/02/07 10:32:39;;;;;;;0.95;0.95;;;1.70;99.90;;;;;;4361190;32;20825;-63
2023/02/07 10:35:17;;;;;;;0.62;0.62;;;1.80;99.90;;;;;;4384090;32;20411;-64
2023/02/07 10:37:44;;;;;;;3.28;1.83;;;1.70;99.90;;;;;;4378348;32;20101;-61
2023/02/07 10:40:34;;;;;;;0.80;0.80;;;1.80;99.90;;;;;;4374260;32;20089;-63
2023/02/07 10:43:09;;;;;;;4.05;1.25;;;1.90;99.90;;;;;;4365626;32;20092;-62
2023/02/07 10:45:34;;;;;;;0.88;0.88;;;1.70;99.90;;;;;;4367567;32;20073;-63
2023/02/07 10:48:00;;;;;;;0.50;0.50;;;1.70;99.90;;;;;;4378535;32;20101;-62
2023/02/07 10:50:27;;;;;;;0.80;0.80;;;2.00;99.90;;;;;;4394011;32;20094;-64
2023/02/07 10:52:54;;;;;;;1.17;1.15;;;2.20;99.90;;;;;;4381309;32;20093;-63
2023/02/07 10:55:36;;;;;;;1.37;1.08;;;2.30;99.90;;;;;;4357338;32;20089;-64
2023/02/07 10:58:03;;;;;;;0.85;0.85;;;2.50;99.90;;;;;;4364467;32;20086;-63
2023/02/07 11:00:33;;;;;;;0.98;0.98;;;2.50;99.90;;;;;;4369020;32;20168;-63
2023/02/07 11:03:19;;;;;;;1.77;1.67;;;2.40;99.90;;;;;;4377204;32;20173;-63
2023/02/07 11:05:55;;;;;;;0.68;0.68;;;2.40;99.90;;;;;;4358254;32;20097;-63
2023/02/07 11:08:24;;;;;;;0.70;0.68;;;2.50;99.90;;;;;;4359143;32;21251;-62
2023/02/07 11:10:54;;;;;;;1.37;1.08;;;2.60;99.90;;;;;;4378367;32;20097;-63
2023/02/07 11:13:24;;;;;;;1.00;1.00;;;2.70;99.90;;;;;;4343406;32;20098;-64
2023/02/07 11:15:55;;;;;;;2.40;0.80;;;2.60;99.90;;;;;;4346093;32;20133;-63
2023/02/07 11:18:45;;;;;;;2.37;1.85;;;2.70;99.90;;;;;;4362272;32;20818;-60
2023/02/07 11:21:44;;;;;;;8.25;2.78;;;2.60;99.90;;;;;;4372452;32;20078;-62
2023/02/07 11:24:33;;;;;;;1.15;1.05;;;2.60;99.90;;;;;;4399336;32;20109;-62
2023/02/07 11:27:05;;;;;;;12.65;3.00;;;2.30;99.90;;;;;;4374059;32;20462;-62
2023/02/07 11:29:36;;;;;;;0.82;0.82;;;2.20;99.90;;;;;;4401746;32;21498;-62
2023/02/07 11:32:02;;;;;;;5.07;1.58;;;2.00;99.90;;;;;;4377095;32;20593;-64
2023/02/07 11:34:49;;;;;;;0.80;0.80;;;2.00;99.90;;;;;;4403331;32;20094;-62
2023/02/07 11:37:20;;;;;;;1.37;1.25;;;2.00;99.90;;;;;;4387464;32;20256;-63
2023/02/07 11:39:48;;;;;;;11.38;4.40;;;2.40;99.90;;;;;;4403424;32;20565;-61
2023/02/07 11:42:19;;;;;;;0.70;0.70;;;3.00;99.90;;;;;;4387197;32;109767;-62
2023/02/07 11:44:46;;;;;;;6.97;3.65;;;3.10;99.90;;;;;;4373682;32;20159;-61
2023/02/07 11:47:19;;;;;;;1.10;1.05;;;3.40;99.90;;;;;;4402860;32;20105;-63
2023/02/07 11:49:50;;;;;;;1.92;1.48;;;3.60;99.90;;;;;;4387854;32;20191;-62
2023/02/07 11:52:16;;;;;;;3.58;1.67;;;3.90;99.90;;;;;;4384771;32;20082;-62
2023/02/07 11:54:50;;;;;;;0.50;0.50;;;4.00;99.90;;;;;;4346367;32;20070;-62
2023/02/07 11:57:17;;;;;;;1.87;1.65;;;4.10;99.90;;;;;;4346723;32;20100;-62
2023/02/07 11:59:51;;;;;;;1.20;1.10;;;4.50;99.90;;;;;;4383510;32;20134;-60
2023/02/07 12:02:23;;;;;;;1.45;1.12;;;4.70;99.90;;;;;;4369085;32;20107;-59
2023/02/07 12:04:50;;;;;;;0.70;0.70;;;5.00;99.90;;;;;;4388736;32;20162;-62
2023/02/07 12:07:28;;;;;;;3.28;1.50;;;5.20;99.90;;;;;;4385787;32;20078;-63
2023/02/07 12:09:56;;;;;;;0.73;0.73;;;5.10;99.90;;;;;;4394366;32;20224;-62
2023/02/07 12:12:47;;;;;;;0.62;0.62;;;5.50;99.90;;;;;;4362218;32;20093;-62
2023/02/07 12:15:17;;;;;;;3.65;1.50;;;5.90;99.90;;;;;;4377490;32;20160;-62
2023/02/07 12:17:59;;;;;;;1.00;0.98;;;6.00;99.90;;;;;;4387587;32;20092;-62
2023/02/07 12:20:29;;;;;;;2.72;1.45;;;5.90;99.90;;;;;;4363834;32;21139;-63
2023/02/07 12:23:02;;;;;;;1.12;1.08;;;6.20;99.90;;;;;;4369281;32;20175;-60
2023/02/07 12:25:36;;;;;;;0.88;0.88;;;6.30;99.90;;;;;;4387354;32;20167;-62
2023/02/07 12:28:14;;;;;;;1.70;1.05;;;6.30;99.90;;;;;;4387082;32;20114;-61
2023/02/07 12:30:45;;;;;;;1.85;1.30;;;6.40;99.90;;;;;;4369874;32;20797;-63
2023/02/07 12:33:51;;;;;;;0.80;0.80;;;6.10;99.90;;;;;;4366950;32;20419;-62
2023/02/07 12:36:28;;;;;;;0.80;0.80;;;6.40;99.90;;;;;;4360773;32;20260;-61
2023/02/07 12:39:00;;;;;;;1.83;1.35;;;7.00;99.90;;;;;;4348641;32;20118;-61
2023/02/07 12:41:50;;;;;;;1.83;1.20;;;7.00;99.90;;;;;;4366947;32;20150;-61
2023/02/07 12:44:39;;;;;;;1.25;1.15;;;6.50;99.90;;;;;;4354354;32;21371;-61
2023/02/07 12:47:36;;;;;;;1.17;0.75;;;6.80;99.90;;;;;;4382259;32;20568;-63
2023/02/07 12:50:22;;;;;;;1.23;1.08;;;6.70;99.90;;;;;;4393749;32;20197;-63
2023/02/07 12:53:16;;;;;;;2.05;1.25;;;6.80;99.90;;;;;;4396913;32;20136;-62
2023/02/07 12:56:04;;;;;;;1.08;0.98;;;7.10;99.90;;;;;;4385977;32;20089;-61
2023/02/07 12:58:48;;;;;;;1.15;0.95;;;7.30;99.90;;;;;;4374962;32;21267;-61
2023/02/07 13:01:37;;;;;;;1.30;1.17;;;7.70;99.90;;;;;;4387822;32;20134;-63